createdAt,value
2023-01-19T00:00:56.730Z,11.87
2023-01-19T00:03:23.794Z,12.68
2023-01-19T00:05:50.368Z,12.48
2023-01-19T00:08:17.716Z,11.85
2023-01-19T00:10:50.254Z,13.55
2023-01-19T00:13:17.152Z,10.43
2023-01-19T00:15:44.220Z,11.10
2023-01-19T00:18:13.857Z,10.48
2023-01-19T00:20:40.781Z,11.52
2023-01-19T00:23:07.769Z,10.27
2023-01-19T00:25:35.492Z,10.37
2023-01-19T00:28:02.169Z,9.65
2023-01-19T00:30:29.289Z,8.52
2023-01-19T00:32:56.231Z,9.85
2023-01-19T00:35:23.135Z,9.70
2023-01-19T00:37:53.093Z,10.13
2023-01-19T00:40:20.495Z,7.97
2023-01-19T00:42:53.149Z,9.25
2023-01-19T00:45:23.494Z,9.13
2023-01-19T00:47:51.447Z,8.68
2023-01-19T00:50:18.221Z,8.10
2023-01-19T00:52:44.980Z,7.60
2023-01-19T00:55:14.234Z,7.68
2023-01-19T00:57:42.024Z,8.15
2023-01-19T01:00:15.977Z,7.63
2023-01-19T01:02:44.583Z,7.93
2023-01-19T01:05:11.646Z,8.23
2023-01-19T01:07:38.636Z,8.13
2023-01-19T01:10:05.774Z,8.55
2023-01-19T01:12:32.761Z,8.88
2023-01-19T01:14:59.588Z,8.60
2023-01-19T01:17:26.382Z,8.50
2023-01-19T01:19:53.148Z,8.80
2023-01-19T01:22:19.769Z,7.68
2023-01-19T01:24:46.301Z,8.73
2023-01-19T01:27:13.228Z,9.17
2023-01-19T01:29:39.874Z,9.40
2023-01-19T01:32:07.156Z,8.63
2023-01-19T01:34:33.962Z,8.07
2023-01-19T01:37:01.035Z,8.90
2023-01-19T01:39:29.000Z,9.40
2023-01-19T01:41:57.541Z,8.80
2023-01-19T01:44:49.203Z,6.85
2023-01-19T01:47:43.801Z,5.10
2023-01-19T01:50:20.946Z,4.32
2023-01-19T01:53:06.319Z,2.53
2023-01-19T01:55:41.612Z,2.30
2023-01-19T01:58:10.286Z,1.90
2023-01-19T02:00:39.723Z,2.47
2023-01-19T02:03:06.305Z,2.35
2023-01-19T02:05:34.985Z,1.90
2023-01-19T02:08:22.890Z,2.38
2023-01-19T02:10:49.693Z,1.30
2023-01-19T02:13:16.523Z,1.30
2023-01-19T02:15:43.062Z,1.00
2023-01-19T02:18:09.586Z,1.30
2023-01-19T02:20:37.189Z,2.70
2023-01-19T02:23:07.650Z,4.00
2023-01-19T02:25:34.475Z,5.10
2023-01-19T02:28:02.042Z,5.15
2023-01-19T02:30:28.839Z,5.03
2023-01-19T02:32:55.412Z,4.43
2023-01-19T02:35:22.914Z,3.42
2023-01-19T02:37:49.870Z,3.05
2023-01-19T02:40:19.020Z,1.50
2023-01-19T02:42:50.244Z,1.10
2023-01-19T02:45:22.868Z,1.65
2023-01-19T02:47:52.336Z,0.60
2023-01-19T02:50:37.392Z,0.63
2023-01-19T02:53:38.642Z,0.80
2023-01-19T02:56:26.176Z,0.63
2023-01-19T02:59:06.551Z,0.60
2023-01-19T03:01:42.332Z,1.20
2023-01-19T03:04:28.504Z,0.73
2023-01-19T03:07:14.892Z,0.80
2023-01-19T03:10:09.031Z,0.87
2023-01-19T03:12:59.448Z,0.85
2023-01-19T03:15:36.434Z,0.77
2023-01-19T03:18:06.406Z,0.90
2023-01-19T03:20:36.583Z,1.00
2023-01-19T03:23:07.639Z,1.00
2023-01-19T03:25:41.601Z,1.20
2023-01-19T03:28:09.284Z,1.10
2023-01-19T03:30:43.211Z,0.90
2023-01-19T03:33:19.197Z,0.77
2023-01-19T03:35:55.128Z,0.90
2023-01-19T03:38:26.195Z,1.10
2023-01-19T03:40:58.753Z,1.00
2023-01-19T03:43:27.621Z,1.10
2023-01-19T03:45:56.812Z,1.10
2023-01-19T03:48:25.347Z,1.10
2023-01-19T03:50:52.559Z,1.20
2023-01-19T03:53:20.622Z,1.30
2023-01-19T03:55:50.445Z,1.20
2023-01-19T03:58:17.311Z,1.38
2023-01-19T04:00:44.007Z,1.50
2023-01-19T04:03:15.155Z,1.45
2023-01-19T04:05:42.243Z,1.30
2023-01-19T04:08:11.752Z,0.93
2023-01-19T04:10:45.987Z,1.10
2023-01-19T04:13:24.523Z,1.20
2023-01-19T04:16:11.835Z,1.30
2023-01-19T04:21:26.582Z,1.27
2023-01-19T04:26:29.913Z,1.00
2023-01-19T04:28:56.370Z,1.20
2023-01-19T04:31:22.810Z,1.67
2023-01-19T04:33:49.271Z,1.60
2023-01-19T04:36:15.727Z,1.63
2023-01-19T04:38:42.152Z,1.80
2023-01-19T04:41:08.751Z,1.70
2023-01-19T04:43:35.246Z,3.63
2023-01-19T04:46:01.723Z,4.38
2023-01-19T04:48:28.128Z,5.10
2023-01-19T04:50:54.589Z,5.57
2023-01-19T04:53:21.119Z,4.80
2023-01-19T04:55:47.567Z,2.53
2023-01-19T04:58:14.016Z,2.60
2023-01-19T05:00:40.451Z,3.83
2023-01-19T05:03:06.915Z,2.87
2023-01-19T05:05:33.379Z,3.70
2023-01-19T05:08:00.040Z,3.00
2023-01-19T05:10:26.594Z,3.28
2023-01-19T05:12:53.074Z,4.90
2023-01-19T05:15:19.535Z,6.70
2023-01-19T05:17:46.572Z,7.47
2023-01-19T05:20:16.030Z,8.38
2023-01-19T05:22:43.583Z,8.57
2023-01-19T05:25:10.070Z,10.75
2023-01-19T05:27:37.203Z,11.40
2023-01-19T05:30:04.561Z,11.07
2023-01-19T05:32:31.138Z,12.98
2023-01-19T05:34:57.747Z,12.73
2023-01-19T05:37:24.300Z,12.77
2023-01-19T05:39:50.925Z,15.80
2023-01-19T05:42:17.355Z,15.18
2023-01-19T05:44:43.859Z,16.73
2023-01-19T05:47:10.319Z,16.27
2023-01-19T05:49:36.767Z,13.93
2023-01-19T05:52:03.274Z,15.23
2023-01-19T05:54:29.701Z,15.43
2023-01-19T05:56:56.122Z,13.55
2023-01-19T05:59:22.586Z,13.05
2023-01-19T06:01:49.059Z,13.30
2023-01-19T06:04:15.574Z,13.27
2023-01-19T06:06:42.013Z,13.43
2023-01-19T06:09:08.795Z,14.20
2023-01-19T06:11:35.272Z,13.38
2023-01-19T06:14:01.678Z,15.20
2023-01-19T06:16:28.247Z,14.33
2023-01-19T06:18:54.769Z,15.05
2023-01-19T06:21:21.616Z,13.57
2023-01-19T06:23:48.037Z,12.70
2023-01-19T06:26:14.432Z,13.80
2023-01-19T06:28:40.996Z,12.87
2023-01-19T06:31:07.492Z,13.07
2023-01-19T06:33:33.963Z,10.68
2023-01-19T06:36:00.833Z,10.18
2023-01-19T06:38:28.041Z,9.82
2023-01-19T06:40:57.032Z,9.60
2023-01-19T06:43:23.555Z,9.05
2023-01-19T06:45:50.051Z,8.65
2023-01-19T06:48:16.910Z,8.57
2023-01-19T06:50:45.760Z,7.53
2023-01-19T06:53:12.422Z,7.40
2023-01-19T06:55:38.926Z,7.05
2023-01-19T06:58:05.738Z,7.13
2023-01-19T07:00:32.221Z,6.70
2023-01-19T07:02:59.061Z,6.80
2023-01-19T07:05:25.799Z,7.30
2023-01-19T07:07:53.770Z,7.07
2023-01-19T07:10:20.271Z,6.88
2023-01-19T07:12:47.192Z,6.85
2023-01-19T07:15:15.393Z,8.07
2023-01-19T07:17:41.951Z,7.50
2023-01-19T07:20:10.493Z,7.15
2023-01-19T07:22:36.935Z,7.95
2023-01-19T07:25:03.611Z,7.63
2023-01-19T07:27:30.075Z,7.55
2023-01-19T07:29:56.668Z,7.67
2023-01-19T07:32:23.168Z,6.80
2023-01-19T07:34:49.644Z,6.30
2023-01-19T07:37:16.095Z,6.50
2023-01-19T07:39:42.562Z,6.53
2023-01-19T07:42:09.013Z,6.50
2023-01-19T07:44:35.611Z,5.90
2023-01-19T07:47:02.099Z,6.38
2023-01-19T07:49:28.582Z,6.30
2023-01-19T07:51:55.036Z,6.85
2023-01-19T07:54:22.014Z,7.10
2023-01-19T07:56:48.542Z,8.30
2023-01-19T07:59:15.020Z,7.95
2023-01-19T08:01:41.583Z,8.20
2023-01-19T08:04:08.295Z,9.38
2023-01-19T08:06:36.898Z,9.20
2023-01-19T08:09:04.317Z,9.55
2023-01-19T08:11:31.353Z,9.32
2023-01-19T08:13:57.872Z,10.50
2023-01-19T08:16:24.510Z,12.10
2023-01-19T08:18:50.943Z,11.97
2023-01-19T08:21:17.440Z,12.63
2023-01-19T08:23:44.005Z,12.57
2023-01-19T08:26:20.193Z,12.43
2023-01-19T08:28:47.109Z,14.43
2023-01-19T08:31:20.456Z,13.40
2023-01-19T08:33:48.931Z,14.52
2023-01-19T08:36:15.399Z,16.52
2023-01-19T08:38:41.866Z,17.70
2023-01-19T08:41:08.292Z,17.42
2023-01-19T08:43:35.472Z,19.27
2023-01-19T08:46:01.964Z,18.77
2023-01-19T08:48:28.473Z,16.52
2023-01-19T08:50:54.987Z,17.10
2023-01-19T08:53:21.719Z,16.67
2023-01-19T08:55:48.212Z,16.30
2023-01-19T08:58:15.141Z,15.68
2023-01-19T09:00:41.789Z,15.90
2023-01-19T09:03:11.554Z,14.43
2023-01-19T09:05:40.095Z,15.52
2023-01-19T09:08:09.478Z,13.67
2023-01-19T09:10:37.268Z,15.57
2023-01-19T09:13:05.389Z,14.90
2023-01-19T09:15:32.232Z,14.35
2023-01-19T09:17:59.004Z,15.25
2023-01-19T09:20:25.844Z,15.27
2023-01-19T09:22:52.394Z,15.90
2023-01-19T09:25:18.848Z,15.20
2023-01-19T09:27:45.235Z,15.40
2023-01-19T09:30:12.475Z,14.15
2023-01-19T09:32:38.899Z,14.37
2023-01-19T09:35:05.925Z,15.50
2023-01-19T09:37:32.339Z,14.75
2023-01-19T09:39:58.777Z,14.85
2023-01-19T09:42:44.448Z,14.57
2023-01-19T09:45:31.225Z,14.77
2023-01-19T09:48:00.974Z,12.00
2023-01-19T09:50:34.064Z,13.52
2023-01-19T09:53:15.112Z,12.50
2023-01-19T09:55:42.196Z,11.48
2023-01-19T09:58:16.799Z,11.10
2023-01-19T10:00:52.648Z,12.50
2023-01-19T10:03:19.202Z,12.10
2023-01-19T10:06:01.287Z,11.38
2023-01-19T10:08:30.740Z,12.45
2023-01-19T10:10:58.414Z,12.73
2023-01-19T10:13:49.736Z,11.25
2023-01-19T10:16:50.879Z,11.15
2023-01-19T10:19:35.748Z,10.10
2023-01-19T10:22:13.626Z,9.88
2023-01-19T10:24:43.295Z,8.90
2023-01-19T10:27:17.357Z,9.18
2023-01-19T10:29:45.067Z,10.90
2023-01-19T10:32:13.552Z,9.57
2023-01-19T10:34:40.664Z,8.98
2023-01-19T10:37:37.762Z,9.53
2023-01-19T10:40:10.185Z,9.50
2023-01-19T10:42:39.018Z,9.90
2023-01-19T10:45:17.559Z,9.50
2023-01-19T10:47:46.179Z,8.65
2023-01-19T10:50:30.236Z,8.43
2023-01-19T10:53:00.310Z,9.23
2023-01-19T10:55:39.590Z,9.60
2023-01-19T10:58:25.728Z,10.18
2023-01-19T11:00:52.343Z,9.40
2023-01-19T11:03:30.283Z,9.37
2023-01-19T11:06:21.215Z,8.35
2023-01-19T11:08:49.356Z,8.10
2023-01-19T11:11:15.837Z,7.75
2023-01-19T11:13:43.081Z,8.60
2023-01-19T11:16:24.811Z,7.30
2023-01-19T11:18:56.416Z,7.13
2023-01-19T11:21:26.068Z,7.68
2023-01-19T11:23:59.124Z,6.70
2023-01-19T11:26:29.181Z,7.57
2023-01-19T11:28:58.604Z,6.00
2023-01-19T11:31:27.884Z,6.18
2023-01-19T11:33:57.029Z,6.22
2023-01-19T11:36:26.741Z,5.90
2023-01-19T11:38:59.535Z,6.10
2023-01-19T11:41:35.492Z,6.20
2023-01-19T11:44:26.402Z,5.82
2023-01-19T11:46:59.069Z,5.32
2023-01-19T11:49:43.838Z,5.78
2023-01-19T11:52:19.399Z,5.90
2023-01-19T11:54:54.864Z,6.70
2023-01-19T11:57:21.480Z,5.88
2023-01-19T11:59:50.727Z,4.78
2023-01-19T12:02:30.309Z,5.50
2023-01-19T12:05:01.578Z,5.22
2023-01-19T12:07:35.192Z,5.40
2023-01-19T12:10:24.237Z,4.53
2023-01-19T12:12:51.992Z,4.85
2023-01-19T12:15:30.985Z,4.85
2023-01-19T12:18:00.962Z,4.80
2023-01-19T12:20:36.481Z,4.53
2023-01-19T12:23:24.318Z,4.38
2023-01-19T12:26:03.048Z,4.07
2023-01-19T12:28:32.759Z,4.43
2023-01-19T12:31:01.066Z,5.60
2023-01-19T12:33:40.649Z,5.30
2023-01-19T12:36:32.075Z,5.85
2023-01-19T12:39:19.272Z,5.70
2023-01-19T12:41:46.191Z,6.13
2023-01-19T12:44:12.558Z,5.20
2023-01-19T12:46:40.637Z,4.80
2023-01-19T12:49:11.286Z,5.30
2023-01-19T12:51:38.066Z,5.40
2023-01-19T12:54:08.439Z,5.93
2023-01-19T12:56:37.833Z,5.53
2023-01-19T12:59:05.275Z,5.00
2023-01-19T13:01:31.960Z,4.28
2023-01-19T13:04:26.341Z,5.28
2023-01-19T13:06:52.777Z,4.70
2023-01-19T13:09:35.260Z,4.15
2023-01-19T13:12:14.782Z,5.80
2023-01-19T13:14:43.112Z,5.13
2023-01-19T13:17:21.577Z,5.57
2023-01-19T13:19:54.653Z,4.10
2023-01-19T13:22:49.898Z,4.22
2023-01-19T13:25:32.089Z,4.20
2023-01-19T13:27:59.106Z,4.10
2023-01-19T13:30:28.870Z,4.10
2023-01-19T13:33:09.192Z,4.32
2023-01-19T13:35:35.885Z,4.75
2023-01-19T13:38:04.225Z,4.40
2023-01-19T13:40:37.914Z,4.45
2023-01-19T13:43:14.741Z,4.90
2023-01-19T13:45:41.944Z,4.57
2023-01-19T13:48:17.151Z,5.50
2023-01-19T13:51:00.592Z,4.77
2023-01-19T13:53:27.099Z,4.30
2023-01-19T13:56:20.517Z,4.07
2023-01-19T13:59:00.464Z,3.78
2023-01-19T14:01:29.276Z,3.75
2023-01-19T14:03:56.273Z,3.67
2023-01-19T14:06:31.767Z,4.13
2023-01-19T14:09:19.842Z,3.65
2023-01-19T14:12:03.532Z,4.22
2023-01-19T14:14:30.166Z,2.88
2023-01-19T14:16:56.958Z,3.17
2023-01-19T14:19:23.509Z,2.55
2023-01-19T14:22:04.489Z,2.38
2023-01-19T14:24:31.356Z,2.30
2023-01-19T14:27:10.272Z,2.42
2023-01-19T14:29:37.195Z,2.80
2023-01-19T14:32:15.812Z,2.75
2023-01-19T14:34:42.304Z,2.80
2023-01-19T14:37:28.040Z,4.68
2023-01-19T14:40:21.769Z,5.22
2023-01-19T14:42:58.828Z,6.03
2023-01-19T14:45:30.182Z,7.25
2023-01-19T14:48:17.984Z,8.25
2023-01-19T14:51:02.085Z,8.80
2023-01-19T14:53:37.085Z,9.70
2023-01-19T14:56:05.438Z,10.60
2023-01-19T14:58:34.858Z,8.90
2023-01-19T15:01:02.105Z,9.98
2023-01-19T15:03:42.889Z,12.57
2023-01-19T15:06:14.655Z,11.88
2023-01-19T15:08:41.477Z,11.83
2023-01-19T15:11:27.762Z,11.85
2023-01-19T15:13:54.267Z,13.25
2023-01-19T15:16:21.660Z,14.70
2023-01-19T15:18:48.116Z,15.30
2023-01-19T15:21:16.472Z,13.80
2023-01-19T15:23:42.906Z,14.85
2023-01-19T15:26:15.778Z,14.43
2023-01-19T15:28:42.581Z,15.13
2023-01-19T15:31:15.084Z,18.73
2023-01-19T15:33:41.537Z,15.27
2023-01-19T15:36:17.811Z,14.10
2023-01-19T15:38:45.134Z,15.90
2023-01-19T15:41:23.726Z,15.05
2023-01-19T15:43:50.718Z,19.25
2023-01-19T15:46:19.079Z,17.80
2023-01-19T15:48:45.513Z,20.27
2023-01-19T15:51:17.369Z,20.73
2023-01-19T15:53:44.545Z,20.17
2023-01-19T15:56:15.785Z,19.55
2023-01-19T15:58:42.914Z,21.00
2023-01-19T16:01:14.644Z,21.13
2023-01-19T16:03:41.792Z,21.33
2023-01-19T16:06:09.499Z,22.60
2023-01-19T16:08:37.236Z,22.00
2023-01-19T16:11:09.101Z,21.67
2023-01-19T16:13:36.053Z,21.27
2023-01-19T16:16:23.707Z,22.77
2023-01-19T16:18:50.441Z,24.65
2023-01-19T16:21:17.267Z,22.13
2023-01-19T16:23:44.072Z,24.43
2023-01-19T16:26:34.936Z,23.70
2023-01-19T16:29:06.883Z,30.35
2023-01-19T16:31:33.338Z,34.42
2023-01-19T16:33:59.787Z,26.30
2023-01-19T16:36:31.754Z,24.40
2023-01-19T16:39:00.101Z,25.80
2023-01-19T16:41:26.644Z,26.35
2023-01-19T16:43:54.195Z,27.80
2023-01-19T16:46:23.583Z,30.17
2023-01-19T16:48:51.038Z,29.77
2023-01-19T16:51:17.918Z,26.30
2023-01-19T16:53:45.377Z,24.70
2023-01-19T16:56:14.219Z,26.67
2023-01-19T16:58:41.331Z,29.08
2023-01-19T17:01:19.744Z,37.37
2023-01-19T17:03:46.944Z,38.97
2023-01-19T17:06:16.863Z,36.53
2023-01-19T17:08:43.641Z,35.83
2023-01-19T17:11:17.568Z,30.90
2023-01-19T17:13:44.011Z,28.73
2023-01-19T17:16:10.682Z,28.17
2023-01-19T17:18:37.828Z,27.00
2023-01-19T17:21:09.578Z,27.58
2023-01-19T17:23:36.969Z,27.20
2023-01-19T17:26:04.908Z,25.53
2023-01-19T17:28:31.365Z,27.75
2023-01-19T17:31:04.966Z,29.02
2023-01-19T17:33:31.457Z,25.83
2023-01-19T17:36:03.457Z,27.10
2023-01-19T17:38:29.888Z,25.20
2023-01-19T17:40:56.371Z,24.38
2023-01-19T17:43:22.820Z,27.33
2023-01-19T17:45:49.283Z,31.52
2023-01-19T17:48:16.010Z,29.58
2023-01-19T17:50:42.456Z,27.30
2023-01-19T17:53:09.140Z,27.17
2023-01-19T17:55:36.273Z,25.88
2023-01-19T17:58:03.263Z,26.75
2023-01-19T18:00:29.957Z,27.85
2023-01-19T18:02:56.450Z,24.53
2023-01-19T18:05:23.317Z,24.98
2023-01-19T18:07:49.782Z,27.20
2023-01-19T18:10:16.854Z,27.25
2023-01-19T18:12:43.529Z,27.00
2023-01-19T18:15:10.378Z,25.10
2023-01-19T18:17:36.869Z,25.80
2023-01-19T18:20:03.841Z,25.55
2023-01-19T18:22:30.359Z,24.88
2023-01-19T18:24:56.953Z,25.25
2023-01-19T18:27:23.440Z,24.50
2023-01-19T18:29:50.361Z,24.80
2023-01-19T18:32:16.909Z,26.67
2023-01-19T18:34:43.427Z,28.83
2023-01-19T18:37:09.871Z,26.77
2023-01-19T18:39:36.330Z,27.90
2023-01-19T18:42:02.810Z,27.65
2023-01-19T18:44:29.300Z,26.90
2023-01-19T18:46:55.799Z,26.13
2023-01-19T18:49:22.802Z,26.17
2023-01-19T18:51:49.255Z,24.80
2023-01-19T18:54:15.695Z,25.05
2023-01-19T18:56:42.161Z,27.88
2023-01-19T18:59:08.557Z,30.17
2023-01-19T19:01:35.163Z,27.70
2023-01-19T19:04:02.106Z,27.90
2023-01-19T19:06:28.605Z,26.92
2023-01-19T19:08:57.375Z,25.52
2023-01-19T19:11:24.873Z,25.52
2023-01-19T19:13:53.441Z,25.85
2023-01-19T19:16:19.924Z,24.00
2023-01-19T19:18:46.364Z,23.75
2023-01-19T19:21:13.050Z,24.13
2023-01-19T19:23:39.545Z,23.48
2023-01-19T19:26:08.425Z,25.27
2023-01-19T19:28:39.709Z,25.83
2023-01-19T19:31:09.106Z,24.25
2023-01-19T19:33:37.639Z,25.40
2023-01-19T19:36:05.623Z,23.95
2023-01-19T19:38:32.468Z,24.67
2023-01-19T19:41:04.155Z,25.83
2023-01-19T19:43:34.782Z,24.55
2023-01-19T19:46:04.246Z,23.83
2023-01-19T19:48:30.832Z,22.70
2023-01-19T19:51:17.025Z,22.52
2023-01-19T19:53:45.046Z,23.03
2023-01-19T19:56:13.029Z,22.15
2023-01-19T19:58:40.692Z,21.45
2023-01-19T20:01:19.110Z,21.27
2023-01-19T20:03:45.968Z,22.80
2023-01-19T20:06:15.269Z,22.93
2023-01-19T20:08:41.939Z,21.85
2023-01-19T20:11:14.903Z,24.02
2023-01-19T20:13:43.064Z,23.10
2023-01-19T20:16:15.910Z,22.50
2023-01-19T20:18:44.120Z,22.57
2023-01-19T20:21:18.928Z,21.50
2023-01-19T20:24:09.747Z,21.63
2023-01-19T20:26:40.667Z,20.58
2023-01-19T20:29:07.409Z,23.13
2023-01-19T20:31:37.706Z,23.20
2023-01-19T20:34:06.740Z,22.75
2023-01-19T20:36:33.565Z,20.50
2023-01-19T20:39:00.120Z,20.83
2023-01-19T20:41:27.101Z,19.08
2023-01-19T20:43:54.200Z,18.10
2023-01-19T20:46:20.669Z,15.00
2023-01-19T20:48:47.117Z,9.25
2023-01-19T20:51:13.656Z,8.68
2023-01-19T20:53:41.369Z,5.70
2023-01-19T20:56:11.829Z,4.77
2023-01-19T20:58:39.027Z,3.50
2023-01-19T21:01:17.661Z,2.30
2023-01-19T21:03:44.545Z,2.30
2023-01-19T21:06:12.091Z,1.58
2023-01-19T21:08:38.808Z,1.20
2023-01-19T21:11:06.331Z,1.70
2023-01-19T21:13:33.913Z,1.48
2023-01-19T21:16:00.876Z,2.00
2023-01-19T21:18:27.396Z,1.50
2023-01-19T21:20:55.104Z,1.63
2023-01-19T21:23:21.538Z,0.88
2023-01-19T21:25:49.970Z,0.93
2023-01-19T21:28:17.589Z,1.20
2023-01-19T21:30:44.261Z,1.13
2023-01-19T21:33:10.810Z,1.90
2023-01-19T21:35:38.231Z,1.80
2023-01-19T21:38:07.565Z,2.00
2023-01-19T21:40:33.977Z,2.53
2023-01-19T21:43:00.385Z,2.97
2023-01-19T21:45:26.867Z,4.30
2023-01-19T21:47:53.431Z,3.92
2023-01-19T21:50:19.956Z,4.38
2023-01-19T21:52:46.422Z,4.80
2023-01-19T21:55:12.991Z,4.85
2023-01-19T21:57:39.549Z,5.50
2023-01-19T22:00:06.888Z,5.50
2023-01-19T22:02:38.585Z,4.55
2023-01-19T22:05:05.829Z,4.50
2023-01-19T22:07:32.460Z,3.72
2023-01-19T22:09:58.974Z,4.50
2023-01-19T22:12:25.440Z,5.60
2023-01-19T22:14:52.440Z,8.25
2023-01-19T22:17:18.997Z,8.93
2023-01-19T22:19:45.453Z,8.88
2023-01-19T22:22:11.928Z,10.03
2023-01-19T22:24:38.467Z,15.65
2023-01-19T22:27:04.899Z,17.90
2023-01-19T22:29:31.332Z,22.02
2023-01-19T22:31:57.840Z,24.65
2023-01-19T22:34:24.355Z,29.37
2023-01-19T22:36:50.867Z,29.67
2023-01-19T22:39:17.538Z,32.03
2023-01-19T22:41:45.835Z,32.78
2023-01-19T22:44:17.937Z,31.50
2023-01-19T22:46:44.691Z,31.63
2023-01-19T22:49:13.647Z,30.67
2023-01-19T22:51:40.110Z,27.13
2023-01-19T22:54:06.734Z,28.92
2023-01-19T22:56:35.543Z,32.17
2023-01-19T22:59:02.921Z,33.10
2023-01-19T23:01:33.217Z,30.65
2023-01-19T23:04:01.350Z,32.65
2023-01-19T23:06:30.495Z,31.08
2023-01-19T23:08:59.846Z,33.72
2023-01-19T23:11:29.886Z,33.03
2023-01-19T23:13:58.196Z,31.45
2023-01-19T23:16:25.245Z,32.60
2023-01-19T23:18:56.813Z,32.80
2023-01-19T23:21:25.750Z,33.25
2023-01-19T23:24:00.622Z,32.60
2023-01-19T23:26:28.176Z,31.92
2023-01-19T23:28:56.432Z,30.50
2023-01-19T23:31:24.848Z,30.92
2023-01-19T23:33:53.524Z,28.88
2023-01-19T23:36:21.815Z,30.37
2023-01-19T23:38:50.661Z,31.42
2023-01-19T23:41:17.963Z,30.88
2023-01-19T23:43:44.558Z,33.45
2023-01-19T23:46:12.151Z,32.33
2023-01-19T23:48:39.042Z,30.27
2023-01-19T23:51:07.819Z,32.17
2023-01-19T23:53:34.682Z,30.75
2023-01-19T23:56:11.137Z,29.60
2023-01-19T23:58:38.070Z,33.70
